createdAt,value
2022-11-24T00:00:50.166Z,2.00
2022-11-24T00:03:16.794Z,2.00
2022-11-24T00:05:43.440Z,2.00
2022-11-24T00:08:10.310Z,2.10
2022-11-24T00:10:36.727Z,2.10
2022-11-24T00:13:03.310Z,2.10
2022-11-24T00:15:29.789Z,2.10
2022-11-24T00:17:56.656Z,2.20
2022-11-24T00:20:23.074Z,2.20
2022-11-24T00:22:49.771Z,2.20
2022-11-24T00:25:16.235Z,2.20
2022-11-24T00:27:42.941Z,2.30
2022-11-24T00:30:09.911Z,2.30
2022-11-24T00:32:36.334Z,2.30
2022-11-24T00:35:02.786Z,2.40
2022-11-24T00:37:29.282Z,2.30
2022-11-24T00:39:55.915Z,2.40
2022-11-24T00:42:22.338Z,2.30
2022-11-24T00:44:48.959Z,2.40
2022-11-24T00:47:15.549Z,2.30
2022-11-24T00:49:41.997Z,2.40
2022-11-24T00:52:08.530Z,2.40
2022-11-24T00:54:35.264Z,2.40
2022-11-24T00:57:01.962Z,2.40
2022-11-24T00:59:28.410Z,2.30
2022-11-24T01:01:55.171Z,2.40
2022-11-24T01:04:21.934Z,2.40
2022-11-24T01:06:48.437Z,2.50
2022-11-24T01:09:14.903Z,2.50
2022-11-24T01:12:00.026Z,2.50
2022-11-24T01:14:26.888Z,2.50
2022-11-24T01:16:54.035Z,2.60
2022-11-24T01:19:20.808Z,2.60
2022-11-24T01:21:47.487Z,2.60
2022-11-24T01:24:14.639Z,2.70
2022-11-24T01:26:41.366Z,2.70
2022-11-24T01:29:07.976Z,2.70
2022-11-24T01:31:34.480Z,2.70
2022-11-24T01:34:00.872Z,2.80
2022-11-24T01:36:27.302Z,2.70
2022-11-24T01:38:56.030Z,2.60
2022-11-24T01:41:25.295Z,2.70
2022-11-24T01:43:53.193Z,2.70
2022-11-24T01:46:24.167Z,2.70
2022-11-24T01:49:11.337Z,2.60
2022-11-24T01:51:48.145Z,2.70
2022-11-24T01:54:19.055Z,2.70
2022-11-24T01:56:47.871Z,2.70
2022-11-24T01:59:15.715Z,2.70
2022-11-24T02:01:42.319Z,2.60
2022-11-24T02:04:13.066Z,2.60
2022-11-24T02:06:40.688Z,2.70
2022-11-24T02:09:13.643Z,2.80
2022-11-24T02:11:40.890Z,2.80
2022-11-24T02:14:10.071Z,2.80
2022-11-24T02:16:37.280Z,2.80
2022-11-24T02:19:14.474Z,2.80
2022-11-24T02:21:40.886Z,2.70
2022-11-24T02:24:17.727Z,2.70
2022-11-24T02:26:46.846Z,2.70
2022-11-24T02:29:14.322Z,2.60
2022-11-24T02:31:46.802Z,2.60
2022-11-24T02:34:13.206Z,2.70
2022-11-24T02:36:39.691Z,2.60
2022-11-24T02:39:12.090Z,2.70
2022-11-24T02:41:42.657Z,2.60
2022-11-24T02:44:09.243Z,2.60
2022-11-24T02:46:35.796Z,2.70
2022-11-24T02:49:02.279Z,2.70
2022-11-24T02:51:29.569Z,2.60
2022-11-24T02:53:56.012Z,2.60
2022-11-24T02:56:22.560Z,2.60
2022-11-24T02:58:49.020Z,2.50
2022-11-24T03:01:15.462Z,2.60
2022-11-24T03:03:42.013Z,2.50
2022-11-24T03:06:08.628Z,2.40
2022-11-24T03:08:35.144Z,2.50
2022-11-24T03:11:02.273Z,2.60
2022-11-24T03:13:29.187Z,2.50
2022-11-24T03:15:55.648Z,2.60
2022-11-24T03:18:22.249Z,2.60
2022-11-24T03:20:48.678Z,2.60
2022-11-24T03:23:15.110Z,2.70
2022-11-24T03:25:41.652Z,2.70
2022-11-24T03:28:08.211Z,2.80
2022-11-24T03:30:34.636Z,2.70
2022-11-24T03:33:01.055Z,2.70
2022-11-24T03:35:27.673Z,2.60
2022-11-24T03:37:54.078Z,2.70
2022-11-24T03:40:20.531Z,2.70
2022-11-24T03:42:47.038Z,2.60
2022-11-24T03:47:59.895Z,2.60
2022-11-24T03:50:26.366Z,2.60
2022-11-24T03:52:52.825Z,2.60
2022-11-24T03:55:19.266Z,2.60
2022-11-24T03:57:45.723Z,2.70
2022-11-24T04:00:12.429Z,2.60
2022-11-24T04:02:39.012Z,2.70
2022-11-24T04:05:06.055Z,2.70
2022-11-24T04:07:32.554Z,2.70
2022-11-24T04:09:59.065Z,2.60
2022-11-24T04:12:44.059Z,2.60
2022-11-24T04:15:16.007Z,2.60
2022-11-24T04:17:42.850Z,2.70
2022-11-24T04:20:10.552Z,2.60
2022-11-24T04:22:37.009Z,2.50
2022-11-24T04:25:04.984Z,2.40
2022-11-24T04:27:33.296Z,2.50
2022-11-24T04:30:00.153Z,2.30
2022-11-24T04:32:26.631Z,2.30
2022-11-24T04:34:53.108Z,2.40
2022-11-24T04:37:19.660Z,2.30
2022-11-24T04:39:46.397Z,2.40
2022-11-24T04:42:13.374Z,2.40
2022-11-24T04:44:40.059Z,2.50
2022-11-24T04:47:06.596Z,2.40
2022-11-24T04:49:33.062Z,2.30
2022-11-24T04:51:59.475Z,2.30
2022-11-24T04:54:25.882Z,2.40
2022-11-24T04:56:52.702Z,2.30
2022-11-24T04:59:19.435Z,2.30
2022-11-24T05:01:46.700Z,2.30
2022-11-24T05:04:15.205Z,2.40
2022-11-24T05:06:41.789Z,2.30
2022-11-24T05:09:08.868Z,2.40
2022-11-24T05:11:35.415Z,2.30
2022-11-24T05:14:02.190Z,2.20
2022-11-24T05:16:28.838Z,2.20
2022-11-24T05:18:55.312Z,2.30
2022-11-24T05:21:21.710Z,2.30
2022-11-24T05:23:48.116Z,2.20
2022-11-24T05:26:14.587Z,2.30
2022-11-24T05:28:41.037Z,2.30
2022-11-24T05:31:07.577Z,2.40
2022-11-24T05:33:34.161Z,2.40
2022-11-24T05:36:02.402Z,2.30
2022-11-24T05:38:30.140Z,2.40
2022-11-24T05:41:04.352Z,2.40
2022-11-24T05:43:30.972Z,2.30
2022-11-24T05:46:01.378Z,2.30
2022-11-24T05:48:28.335Z,2.30
2022-11-24T05:50:56.265Z,2.10
2022-11-24T05:53:23.176Z,2.20
2022-11-24T05:55:49.768Z,2.20
2022-11-24T05:58:16.195Z,2.30
2022-11-24T06:00:42.820Z,2.20
2022-11-24T06:03:11.028Z,2.20
2022-11-24T06:05:37.576Z,2.10
2022-11-24T06:08:05.292Z,2.00
2022-11-24T06:10:31.753Z,2.00
2022-11-24T06:12:58.196Z,2.00
2022-11-24T06:15:24.651Z,2.00
2022-11-24T06:17:55.674Z,2.00
2022-11-24T06:20:27.008Z,2.10
2022-11-24T06:22:58.819Z,2.00
2022-11-24T06:25:25.382Z,2.20
2022-11-24T06:27:52.039Z,2.20
2022-11-24T06:30:18.429Z,2.20
2022-11-24T06:32:49.321Z,2.20
2022-11-24T06:35:16.606Z,2.10
2022-11-24T06:37:43.051Z,2.10
2022-11-24T06:40:10.349Z,2.10
2022-11-24T06:42:37.284Z,2.10
2022-11-24T06:45:08.800Z,2.20
2022-11-24T06:47:36.174Z,2.10
2022-11-24T06:50:02.685Z,2.10
2022-11-24T06:52:29.169Z,2.10
2022-11-24T06:54:55.651Z,2.10
2022-11-24T06:57:22.076Z,2.20
2022-11-24T06:59:48.559Z,2.30
2022-11-24T07:02:15.142Z,2.30
2022-11-24T07:04:41.577Z,2.30
2022-11-24T07:07:08.250Z,2.30
2022-11-24T07:09:34.678Z,2.30
2022-11-24T07:12:02.245Z,2.30
2022-11-24T07:14:28.704Z,2.30
2022-11-24T07:16:55.190Z,2.40
2022-11-24T07:19:24.883Z,2.50
2022-11-24T07:21:51.786Z,2.60
2022-11-24T07:24:18.823Z,2.60
2022-11-24T07:26:45.359Z,2.50
2022-11-24T07:29:11.801Z,2.50
2022-11-24T07:31:38.316Z,2.50
2022-11-24T07:34:05.041Z,2.70
2022-11-24T07:36:31.570Z,2.70
2022-11-24T07:38:58.070Z,2.70
2022-11-24T07:41:24.757Z,2.70
2022-11-24T07:43:51.835Z,2.90
2022-11-24T07:46:19.835Z,2.80
2022-11-24T07:48:47.833Z,2.70
2022-11-24T07:51:14.753Z,2.70
2022-11-24T07:53:41.305Z,2.70
2022-11-24T07:56:09.261Z,2.80
2022-11-24T07:58:37.079Z,2.80
2022-11-24T08:01:15.470Z,2.90
2022-11-24T08:03:43.016Z,2.90
2022-11-24T08:06:30.288Z,2.90
2022-11-24T08:08:57.231Z,2.80
2022-11-24T08:11:23.969Z,3.00
2022-11-24T08:13:50.459Z,3.00
2022-11-24T08:16:18.837Z,3.10
2022-11-24T08:18:50.750Z,3.10
2022-11-24T08:21:17.771Z,3.20
2022-11-24T08:23:44.361Z,3.30
2022-11-24T08:26:17.602Z,3.30
2022-11-24T08:28:45.383Z,3.40
2022-11-24T08:31:15.143Z,3.50
2022-11-24T08:33:42.306Z,3.60
2022-11-24T08:36:14.968Z,3.60
2022-11-24T08:38:41.892Z,3.70
2022-11-24T08:41:11.958Z,3.50
2022-11-24T08:43:38.738Z,3.50
2022-11-24T08:46:07.604Z,3.70
2022-11-24T08:48:34.513Z,3.60
2022-11-24T08:51:07.883Z,3.60
2022-11-24T08:53:34.281Z,3.70
2022-11-24T08:56:01.282Z,3.90
2022-11-24T08:58:31.264Z,3.80
2022-11-24T09:01:07.350Z,3.90
2022-11-24T09:03:34.783Z,3.90
2022-11-24T09:06:02.375Z,3.90
2022-11-24T09:08:32.392Z,4.00
2022-11-24T09:11:03.718Z,4.00
2022-11-24T09:13:30.216Z,4.20
2022-11-24T09:15:56.687Z,4.30
2022-11-24T09:18:27.492Z,4.30
2022-11-24T09:21:11.646Z,4.10
2022-11-24T09:23:38.253Z,4.10
2022-11-24T09:26:05.690Z,4.30
2022-11-24T09:28:32.192Z,4.50
2022-11-24T09:31:03.612Z,4.60
2022-11-24T09:33:31.565Z,4.70
2022-11-24T09:35:58.671Z,4.90
2022-11-24T09:38:25.507Z,5.00
2022-11-24T09:40:54.473Z,5.20
2022-11-24T09:43:47.962Z,5.10
2022-11-24T09:46:25.780Z,5.30
2022-11-24T09:48:56.579Z,5.00
2022-11-24T09:51:27.014Z,5.00
2022-11-24T09:53:57.953Z,5.10
2022-11-24T09:56:27.904Z,5.40
2022-11-24T09:59:05.285Z,5.40
2022-11-24T10:01:35.661Z,5.60
2022-11-24T10:04:06.217Z,6.10
2022-11-24T10:06:43.824Z,5.90
2022-11-24T10:09:36.660Z,5.70
2022-11-24T10:12:23.482Z,6.00
2022-11-24T10:15:11.058Z,6.10
2022-11-24T10:17:46.542Z,6.80
2022-11-24T10:20:24.149Z,6.70
2022-11-24T10:23:54.065Z,7.30
2022-11-24T10:26:34.976Z,7.50
2022-11-24T10:29:02.788Z,7.10
2022-11-24T10:31:34.192Z,6.80
2022-11-24T10:34:16.518Z,6.90
2022-11-24T10:37:07.120Z,6.70
2022-11-24T10:40:00.968Z,6.90
2022-11-24T10:42:33.386Z,7.10
2022-11-24T10:45:09.325Z,7.30
2022-11-24T10:47:35.861Z,7.40
2022-11-24T10:50:17.591Z,7.40
2022-11-24T10:52:50.744Z,7.60
2022-11-24T10:55:17.170Z,7.40
2022-11-24T10:57:45.121Z,7.20
2022-11-24T11:00:20.771Z,7.40
2022-11-24T11:02:48.833Z,7.30
2022-11-24T11:05:41.730Z,7.30
2022-11-24T11:08:14.282Z,7.30
2022-11-24T11:10:42.306Z,7.30
2022-11-24T11:13:23.238Z,7.10
2022-11-24T11:15:49.932Z,7.10
2022-11-24T11:18:18.249Z,6.90
2022-11-24T11:20:56.370Z,7.00
2022-11-24T11:23:25.545Z,6.80
2022-11-24T11:26:11.878Z,7.20
2022-11-24T11:28:38.394Z,7.40
2022-11-24T11:31:22.808Z,7.40
2022-11-24T11:34:23.280Z,6.90
2022-11-24T11:36:56.051Z,6.90
2022-11-24T11:39:31.030Z,7.00
2022-11-24T11:42:07.246Z,7.00
2022-11-24T11:44:41.752Z,7.10
2022-11-24T11:47:15.539Z,7.50
2022-11-24T11:49:42.062Z,7.50
2022-11-24T11:52:23.051Z,7.70
2022-11-24T11:54:58.840Z,7.80
2022-11-24T11:57:54.525Z,7.40
2022-11-24T12:00:22.440Z,7.60
2022-11-24T12:03:20.405Z,7.40
2022-11-24T12:06:00.217Z,7.70
2022-11-24T12:08:56.012Z,7.50
2022-11-24T12:11:42.609Z,7.50
2022-11-24T12:14:42.809Z,7.40
2022-11-24T12:17:24.836Z,7.60
2022-11-24T12:20:15.253Z,7.70
2022-11-24T12:22:53.722Z,7.50
2022-11-24T12:25:41.963Z,7.20
2022-11-24T12:28:18.182Z,7.30
2022-11-24T12:31:04.781Z,7.30
2022-11-24T12:34:03.881Z,7.30
2022-11-24T12:36:45.320Z,7.30
2022-11-24T12:39:37.149Z,7.40
2022-11-24T12:42:35.685Z,7.50
2022-11-24T12:45:15.734Z,7.40
2022-11-24T12:47:53.418Z,7.80
2022-11-24T12:50:24.260Z,7.80
2022-11-24T12:52:58.877Z,7.70
2022-11-24T12:55:27.636Z,7.90
2022-11-24T12:58:09.334Z,7.70
2022-11-24T13:01:16.666Z,7.80
2022-11-24T13:04:10.236Z,7.70
2022-11-24T13:06:49.404Z,7.70
2022-11-24T13:09:16.815Z,7.90
2022-11-24T13:11:46.952Z,7.80
2022-11-24T13:14:22.091Z,7.90
2022-11-24T13:17:28.066Z,7.70
2022-11-24T13:19:39.060Z,7.30
2022-11-24T13:22:08.434Z,7.50
2022-11-24T13:24:37.387Z,7.40
2022-11-24T13:27:13.310Z,7.40
2022-11-24T13:29:41.820Z,7.50
2022-11-24T13:32:08.233Z,7.60
2022-11-24T13:34:40.631Z,7.50
2022-11-24T13:37:33.667Z,7.70
2022-11-24T13:40:11.311Z,7.50
2022-11-24T13:43:01.658Z,7.40
2022-11-24T13:45:41.173Z,7.30
2022-11-24T13:48:20.195Z,7.30
2022-11-24T13:50:50.197Z,7.30
2022-11-24T13:53:34.106Z,7.30
2022-11-24T13:56:09.834Z,7.40
2022-11-24T13:58:47.848Z,7.50
2022-11-24T14:01:24.076Z,7.30
2022-11-24T14:04:34.977Z,7.60
2022-11-24T14:09:54.072Z,7.80
2022-11-24T14:12:23.216Z,7.60
2022-11-24T14:14:51.626Z,7.70
2022-11-24T14:17:24.188Z,7.70
2022-11-24T14:19:53.425Z,7.60
2022-11-24T14:22:21.617Z,7.70
2022-11-24T14:24:53.662Z,7.70
2022-11-24T14:27:26.119Z,7.70
2022-11-24T14:29:57.792Z,7.70
2022-11-24T14:32:24.528Z,7.70
2022-11-24T14:34:52.143Z,7.70
2022-11-24T14:37:21.477Z,7.70
2022-11-24T14:39:48.435Z,7.40
2022-11-24T14:42:23.845Z,7.50
2022-11-24T14:44:54.298Z,7.30
2022-11-24T14:47:31.363Z,7.30
2022-11-24T14:50:10.713Z,7.30
2022-11-24T14:52:44.497Z,7.10
2022-11-24T14:55:27.216Z,7.10
2022-11-24T14:57:53.873Z,7.20
2022-11-24T15:00:28.313Z,7.10
2022-11-24T15:03:08.230Z,7.10
2022-11-24T15:05:55.656Z,7.10
2022-11-24T15:08:24.606Z,7.20
2022-11-24T15:10:58.495Z,7.10
2022-11-24T15:13:25.256Z,7.10
2022-11-24T15:16:01.815Z,7.10
2022-11-24T15:18:41.938Z,7.10
2022-11-24T15:21:12.953Z,6.80
2022-11-24T15:23:42.836Z,6.90
2022-11-24T15:26:11.948Z,6.40
2022-11-24T15:28:38.813Z,6.50
2022-11-24T15:31:09.537Z,6.50
2022-11-24T15:33:36.486Z,6.60
2022-11-24T15:36:02.927Z,6.70
2022-11-24T15:38:29.454Z,6.70
2022-11-24T15:40:59.035Z,6.70
2022-11-24T15:43:34.129Z,6.50
2022-11-24T15:46:01.439Z,6.50
2022-11-24T15:48:28.869Z,6.60
2022-11-24T15:50:56.910Z,6.50
2022-11-24T15:53:28.016Z,6.30
2022-11-24T15:55:56.314Z,6.40
2022-11-24T15:58:23.336Z,6.50
2022-11-24T16:00:50.970Z,6.60
2022-11-24T16:03:45.642Z,6.60
2022-11-24T16:06:03.907Z,6.60
2022-11-24T16:08:30.393Z,6.50
2022-11-24T16:10:56.822Z,6.40
2022-11-24T16:13:23.227Z,6.40
2022-11-24T16:15:49.988Z,6.40
2022-11-24T16:18:16.578Z,6.40
2022-11-24T16:20:42.987Z,6.40
2022-11-24T16:23:09.426Z,6.30
2022-11-24T16:25:36.285Z,6.20
2022-11-24T16:28:02.779Z,5.80
2022-11-24T16:30:29.207Z,5.80
2022-11-24T16:32:55.684Z,5.90
2022-11-24T16:35:22.105Z,6.00
2022-11-24T16:37:51.536Z,6.00
2022-11-24T16:40:18.321Z,5.80
2022-11-24T16:42:44.898Z,5.60
2022-11-24T16:45:12.965Z,5.70
2022-11-24T16:47:41.574Z,5.80
2022-11-24T16:50:09.984Z,5.90
2022-11-24T16:52:36.717Z,5.80
2022-11-24T16:55:04.026Z,5.90
2022-11-24T16:57:30.682Z,5.80
2022-11-24T16:59:57.093Z,5.80
2022-11-24T17:02:23.606Z,5.80
2022-11-24T17:04:52.423Z,5.90
2022-11-24T17:07:19.793Z,5.70
2022-11-24T17:09:46.275Z,5.80
2022-11-24T17:12:12.709Z,5.70
2022-11-24T17:14:39.179Z,5.80
2022-11-24T17:17:05.668Z,5.70
2022-11-24T17:19:32.228Z,5.80
2022-11-24T17:21:58.804Z,5.70
2022-11-24T17:24:25.236Z,5.60
2022-11-24T17:26:51.671Z,5.40
2022-11-24T17:29:18.516Z,5.30
2022-11-24T17:31:45.036Z,5.10
2022-11-24T17:34:12.153Z,4.90
2022-11-24T17:36:39.732Z,4.90
2022-11-24T17:39:07.141Z,4.90
2022-11-24T17:41:34.062Z,4.90
2022-11-24T17:44:01.190Z,5.00
2022-11-24T17:46:29.252Z,5.00
2022-11-24T17:48:55.782Z,5.20
2022-11-24T17:51:24.485Z,5.30
2022-11-24T17:53:52.366Z,5.40
2022-11-24T17:56:24.953Z,5.40
2022-11-24T17:58:56.365Z,5.40
2022-11-24T18:01:23.267Z,5.50
2022-11-24T18:03:53.375Z,5.50
2022-11-24T18:06:20.544Z,5.50
2022-11-24T18:08:47.602Z,5.40
2022-11-24T18:11:30.546Z,5.40
2022-11-24T18:14:01.437Z,5.40
2022-11-24T18:16:30.347Z,5.40
2022-11-24T18:19:08.416Z,5.30
2022-11-24T18:21:40.847Z,5.10
2022-11-24T18:24:11.573Z,5.00
2022-11-24T18:26:39.247Z,5.00
2022-11-24T18:29:05.963Z,5.00
2022-11-24T18:31:34.207Z,5.00
2022-11-24T18:34:01.479Z,4.90
2022-11-24T18:36:30.539Z,4.80
2022-11-24T18:39:00.054Z,4.70
2022-11-24T18:41:27.073Z,4.50
2022-11-24T18:43:53.499Z,4.50
2022-11-24T18:46:19.984Z,4.40
2022-11-24T18:48:46.995Z,4.40
2022-11-24T18:51:14.625Z,4.20
2022-11-24T18:53:42.712Z,4.20
2022-11-24T18:56:13.743Z,4.00
2022-11-24T18:58:40.350Z,4.00
2022-11-24T19:01:14.438Z,3.90
2022-11-24T19:03:48.360Z,3.80
2022-11-24T19:06:18.781Z,3.60
2022-11-24T19:08:45.610Z,3.70
2022-11-24T19:11:22.472Z,3.60
2022-11-24T19:13:49.539Z,3.50
2022-11-24T19:16:17.314Z,3.40
2022-11-24T19:18:46.486Z,3.40
2022-11-24T19:21:17.900Z,3.30
2022-11-24T19:23:44.330Z,3.30
2022-11-24T19:26:11.047Z,3.30
2022-11-24T19:28:37.543Z,3.20
2022-11-24T19:31:06.994Z,3.20
2022-11-24T19:33:33.830Z,3.20
2022-11-24T19:36:05.768Z,3.10
2022-11-24T19:38:33.459Z,3.10
2022-11-24T19:41:08.717Z,3.10
2022-11-24T19:43:35.246Z,3.10
2022-11-24T19:46:09.792Z,3.00
2022-11-24T19:48:38.277Z,2.90
2022-11-24T19:51:07.476Z,2.90
2022-11-24T19:53:34.881Z,2.90
2022-11-24T19:56:06.514Z,2.60
2022-11-24T19:58:32.970Z,2.70
2022-11-24T20:01:07.036Z,2.60
2022-11-24T20:03:33.996Z,2.60
2022-11-24T20:06:00.465Z,2.40
2022-11-24T20:08:31.151Z,2.40
2022-11-24T20:11:05.973Z,2.40
2022-11-24T20:13:34.597Z,2.40
2022-11-24T20:16:10.037Z,2.30
2022-11-24T20:18:41.967Z,2.30
2022-11-24T20:21:12.033Z,2.30
2022-11-24T20:23:39.518Z,2.30
2022-11-24T20:26:08.709Z,2.20
2022-11-24T20:28:35.199Z,2.30
2022-11-24T20:31:10.210Z,2.20
2022-11-24T20:33:37.425Z,2.10
2022-11-24T20:36:06.202Z,2.10
2022-11-24T20:38:34.384Z,2.10
2022-11-24T20:41:07.561Z,2.10
2022-11-24T20:43:35.884Z,2.00
2022-11-24T20:46:14.915Z,2.00
2022-11-24T20:48:41.521Z,1.90
2022-11-24T20:51:11.250Z,1.90
2022-11-24T20:53:38.749Z,1.90
2022-11-24T20:56:08.123Z,1.80
2022-11-24T20:58:35.969Z,1.80
2022-11-24T21:01:05.877Z,1.80
2022-11-24T21:03:34.639Z,1.80
2022-11-24T21:06:03.942Z,1.80
2022-11-24T21:08:36.152Z,1.60
2022-11-24T21:11:03.484Z,1.70
2022-11-24T21:13:33.682Z,1.60
2022-11-24T21:16:01.328Z,1.60
2022-11-24T21:18:27.826Z,1.70
2022-11-24T21:20:54.209Z,1.60
2022-11-24T21:23:20.670Z,1.50
2022-11-24T21:25:47.083Z,1.50
2022-11-24T21:28:13.724Z,1.50
2022-11-24T21:30:40.278Z,1.50
2022-11-24T21:33:07.051Z,1.50
2022-11-24T21:35:36.876Z,1.40
2022-11-24T21:38:03.961Z,1.40
2022-11-24T21:40:30.432Z,1.40
2022-11-24T21:42:59.344Z,1.30
2022-11-24T21:45:28.933Z,1.30
2022-11-24T21:47:59.926Z,1.20
2022-11-24T21:50:26.392Z,1.30
2022-11-24T21:52:52.852Z,1.20
2022-11-24T21:55:19.331Z,1.20
2022-11-24T21:57:46.331Z,1.20
2022-11-24T22:00:13.253Z,1.30
2022-11-24T22:02:39.769Z,1.50
2022-11-24T22:05:06.634Z,1.60
2022-11-24T22:07:33.202Z,1.60
2022-11-24T22:09:59.624Z,1.70
2022-11-24T22:12:26.066Z,1.80
2022-11-24T22:14:52.485Z,1.90
2022-11-24T22:17:18.972Z,1.90
2022-11-24T22:19:47.796Z,2.00
2022-11-24T22:22:14.247Z,2.10
2022-11-24T22:24:41.078Z,2.20
2022-11-24T22:27:07.745Z,2.10
2022-11-24T22:29:34.166Z,2.20
2022-11-24T22:32:00.774Z,2.30
2022-11-24T22:34:27.251Z,2.30
2022-11-24T22:36:53.745Z,2.40
2022-11-24T22:39:20.185Z,2.40
2022-11-24T22:41:46.711Z,2.40
2022-11-24T22:44:13.152Z,2.30
2022-11-24T22:46:39.545Z,2.40
2022-11-24T22:49:05.972Z,2.50
2022-11-24T22:51:34.518Z,2.60
2022-11-24T22:54:02.842Z,2.60
2022-11-24T22:56:32.033Z,2.70
2022-11-24T22:58:59.598Z,2.70
2022-11-24T23:01:27.586Z,2.80
2022-11-24T23:03:54.508Z,2.70
2022-11-24T23:06:23.691Z,2.90
2022-11-24T23:08:50.963Z,2.90
2022-11-24T23:11:29.142Z,3.00
2022-11-24T23:14:00.404Z,2.90
2022-11-24T23:16:27.617Z,3.00
2022-11-24T23:18:54.566Z,3.00
2022-11-24T23:21:27.185Z,3.10
2022-11-24T23:23:54.029Z,3.10
2022-11-24T23:26:23.426Z,3.10
2022-11-24T23:28:50.337Z,3.10
2022-11-24T23:31:22.154Z,3.20
2022-11-24T23:33:48.631Z,3.30
2022-11-24T23:36:17.260Z,3.30
2022-11-24T23:38:45.086Z,3.40
2022-11-24T23:41:14.643Z,3.40
2022-11-24T23:43:42.154Z,3.50
2022-11-24T23:46:14.659Z,3.40
2022-11-24T23:48:41.527Z,3.60
2022-11-24T23:51:12.184Z,3.60
2022-11-24T23:53:38.627Z,3.60
2022-11-24T23:56:05.848Z,3.60
2022-11-24T23:58:33.589Z,3.50
